sensor_id;sensor_type;location;lat;lon;timestamp;P1;durP1;ratioP1;P2;durP2;ratioP2
43646;SDS011;56152;49.996;18.980;2023-12-20T00:02:30;9.93;;;5.10;;
43646;SDS011;56152;49.996;18.980;2023-12-20T00:07:33;8.65;;;5.03;;
43646;SDS011;56152;49.996;18.980;2023-12-20T00:12:39;10.77;;;4.93;;
43646;SDS011;56152;49.996;18.980;2023-12-20T00:17:41;10.18;;;4.95;;
43646;SDS011;56152;49.996;18.980;2023-12-20T00:22:45;8.13;;;4.93;;
43646;SDS011;56152;49.996;18.980;2023-12-20T00:27:49;9.60;;;5.00;;
43646;SDS011;56152;49.996;18.980;2023-12-20T00:32:51;12.45;;;5.82;;
43646;SDS011;56152;49.996;18.980;2023-12-20T00:37:53;9.15;;;4.90;;
43646;SDS011;56152;49.996;18.980;2023-12-20T00:42:57;9.40;;;4.38;;
43646;SDS011;56152;49.996;18.980;2023-12-20T00:47:59;7.60;;;4.38;;
43646;SDS011;56152;49.996;18.980;2023-12-20T00:53:01;8.27;;;4.32;;
43646;SDS011;56152;49.996;18.980;2023-12-20T00:58:05;8.65;;;4.53;;
43646;SDS011;56152;49.996;18.980;2023-12-20T01:03:07;11.13;;;4.88;;
43646;SDS011;56152;49.996;18.980;2023-12-20T01:08:09;8.18;;;4.78;;
43646;SDS011;56152;49.996;18.980;2023-12-20T01:13:12;9.73;;;4.38;;
43646;SDS011;56152;49.996;18.980;2023-12-20T01:18:14;7.75;;;4.53;;
43646;SDS011;56152;49.996;18.980;2023-12-20T01:23:20;7.53;;;3.90;;
43646;SDS011;56152;49.996;18.980;2023-12-20T01:28:27;8.35;;;4.40;;
43646;SDS011;56152;49.996;18.980;2023-12-20T01:33:29;7.38;;;4.18;;
43646;SDS011;56152;49.996;18.980;2023-12-20T01:38:31;5.57;;;3.92;;
43646;SDS011;56152;49.996;18.980;2023-12-20T01:43:35;6.28;;;4.25;;
43646;SDS011;56152;49.996;18.980;2023-12-20T01:48:37;7.43;;;4.63;;
43646;SDS011;56152;49.996;18.980;2023-12-20T01:53:41;8.07;;;4.32;;
43646;SDS011;56152;49.996;18.980;2023-12-20T01:58:46;8.05;;;4.65;;
43646;SDS011;56152;49.996;18.980;2023-12-20T02:03:49;8.32;;;4.65;;
43646;SDS011;56152;49.996;18.980;2023-12-20T02:08:52;6.82;;;4.57;;
43646;SDS011;56152;49.996;18.980;2023-12-20T02:13:56;7.50;;;4.50;;
43646;SDS011;56152;49.996;18.980;2023-12-20T02:18:58;10.00;;;4.80;;
43646;SDS011;56152;49.996;18.980;2023-12-20T02:24:02;9.00;;;5.15;;
43646;SDS011;56152;49.996;18.980;2023-12-20T02:29:05;6.78;;;4.43;;
43646;SDS011;56152;49.996;18.980;2023-12-20T02:34:07;8.10;;;4.93;;
43646;SDS011;56152;49.996;18.980;2023-12-20T02:39:10;9.07;;;5.60;;
43646;SDS011;56152;49.996;18.980;2023-12-20T02:44:13;7.88;;;5.07;;
43646;SDS011;56152;49.996;18.980;2023-12-20T02:49:15;10.15;;;5.72;;
43646;SDS011;56152;49.996;18.980;2023-12-20T02:54:22;8.23;;;5.40;;
43646;SDS011;56152;49.996;18.980;2023-12-20T02:59:24;9.52;;;5.35;;
43646;SDS011;56152;49.996;18.980;2023-12-20T03:04:26;9.88;;;5.95;;
43646;SDS011;56152;49.996;18.980;2023-12-20T03:09:30;9.00;;;5.28;;
43646;SDS011;56152;49.996;18.980;2023-12-20T03:14:32;8.55;;;5.40;;
43646;SDS011;56152;49.996;18.980;2023-12-20T03:19:35;9.18;;;5.43;;
43646;SDS011;56152;49.996;18.980;2023-12-20T03:24:39;8.65;;;4.90;;
43646;SDS011;56152;49.996;18.980;2023-12-20T03:29:40;7.68;;;5.07;;
43646;SDS011;56152;49.996;18.980;2023-12-20T03:34:43;9.07;;;5.05;;
43646;SDS011;56152;49.996;18.980;2023-12-20T03:39:46;10.63;;;5.30;;
43646;SDS011;56152;49.996;18.980;2023-12-20T03:44:49;7.85;;;5.55;;
43646;SDS011;56152;49.996;18.980;2023-12-20T03:49:51;7.88;;;5.30;;
43646;SDS011;56152;49.996;18.980;2023-12-20T03:54:55;9.10;;;5.85;;
43646;SDS011;56152;49.996;18.980;2023-12-20T03:59:57;9.85;;;6.32;;
43646;SDS011;56152;49.996;18.980;2023-12-20T04:04:59;9.90;;;5.30;;
43646;SDS011;56152;49.996;18.980;2023-12-20T04:10:02;10.93;;;6.10;;
43646;SDS011;56152;49.996;18.980;2023-12-20T04:15:06;8.43;;;5.22;;
43646;SDS011;56152;49.996;18.980;2023-12-20T04:20:12;9.85;;;6.00;;
43646;SDS011;56152;49.996;18.980;2023-12-20T04:25:16;8.77;;;5.60;;
43646;SDS011;56152;49.996;18.980;2023-12-20T04:30:18;8.60;;;5.80;;
43646;SDS011;56152;49.996;18.980;2023-12-20T04:35:20;8.77;;;5.72;;
43646;SDS011;56152;49.996;18.980;2023-12-20T04:40:24;11.05;;;5.80;;
43646;SDS011;56152;49.996;18.980;2023-12-20T04:45:26;8.70;;;5.70;;
43646;SDS011;56152;49.996;18.980;2023-12-20T04:50:28;9.35;;;6.03;;
43646;SDS011;56152;49.996;18.980;2023-12-20T04:55:34;9.77;;;5.20;;
43646;SDS011;56152;49.996;18.980;2023-12-20T05:00:37;9.15;;;5.50;;
43646;SDS011;56152;49.996;18.980;2023-12-20T05:05:38;9.48;;;6.15;;
43646;SDS011;56152;49.996;18.980;2023-12-20T05:10:42;9.93;;;6.30;;
43646;SDS011;56152;49.996;18.980;2023-12-20T05:15:44;10.52;;;6.75;;
43646;SDS011;56152;49.996;18.980;2023-12-20T05:20:47;9.45;;;6.68;;
43646;SDS011;56152;49.996;18.980;2023-12-20T05:25:51;10.32;;;6.85;;
43646;SDS011;56152;49.996;18.980;2023-12-20T05:30:53;11.30;;;7.27;;
43646;SDS011;56152;49.996;18.980;2023-12-20T05:35:56;12.20;;;8.23;;
43646;SDS011;56152;49.996;18.980;2023-12-20T05:41:02;11.68;;;7.40;;
43646;SDS011;56152;49.996;18.980;2023-12-20T05:46:04;14.63;;;9.55;;
43646;SDS011;56152;49.996;18.980;2023-12-20T05:51:06;12.98;;;8.43;;
43646;SDS011;56152;49.996;18.980;2023-12-20T05:56:10;15.70;;;9.13;;
43646;SDS011;56152;49.996;18.980;2023-12-20T06:01:12;15.20;;;9.07;;
43646;SDS011;56152;49.996;18.980;2023-12-20T06:06:17;12.38;;;8.30;;
43646;SDS011;56152;49.996;18.980;2023-12-20T06:11:20;14.68;;;8.30;;
43646;SDS011;56152;49.996;18.980;2023-12-20T06:16:22;14.37;;;8.90;;
43646;SDS011;56152;49.996;18.980;2023-12-20T06:21:24;14.38;;;8.77;;
43646;SDS011;56152;49.996;18.980;2023-12-20T06:26:27;14.15;;;8.85;;
43646;SDS011;56152;49.996;18.980;2023-12-20T06:31:29;14.80;;;8.85;;
43646;SDS011;56152;49.996;18.980;2023-12-20T06:36:35;13.45;;;8.27;;
43646;SDS011;56152;49.996;18.980;2023-12-20T06:41:39;14.77;;;8.57;;
43646;SDS011;56152;49.996;18.980;2023-12-20T06:46:42;14.68;;;8.80;;
43646;SDS011;56152;49.996;18.980;2023-12-20T06:51:45;17.35;;;10.05;;
43646;SDS011;56152;49.996;18.980;2023-12-20T06:56:48;16.50;;;11.05;;
43646;SDS011;56152;49.996;18.980;2023-12-20T07:01:53;21.43;;;12.50;;
43646;SDS011;56152;49.996;18.980;2023-12-20T07:06:55;18.52;;;11.98;;
43646;SDS011;56152;49.996;18.980;2023-12-20T07:12:01;20.73;;;12.88;;
43646;SDS011;56152;49.996;18.980;2023-12-20T07:17:07;20.67;;;14.20;;
43646;SDS011;56152;49.996;18.980;2023-12-20T07:22:11;23.57;;;14.17;;
43646;SDS011;56152;49.996;18.980;2023-12-20T07:27:15;23.23;;;14.80;;
43646;SDS011;56152;49.996;18.980;2023-12-20T07:32:17;20.48;;;14.13;;
43646;SDS011;56152;49.996;18.980;2023-12-20T07:37:20;23.60;;;15.60;;
43646;SDS011;56152;49.996;18.980;2023-12-20T07:42:23;30.20;;;17.33;;
43646;SDS011;56152;49.996;18.980;2023-12-20T07:47:25;30.02;;;16.95;;
43646;SDS011;56152;49.996;18.980;2023-12-20T07:52:27;28.40;;;16.90;;
43646;SDS011;56152;49.996;18.980;2023-12-20T07:57:31;27.30;;;16.40;;
43646;SDS011;56152;49.996;18.980;2023-12-20T08:02:36;28.90;;;18.00;;
43646;SDS011;56152;49.996;18.980;2023-12-20T08:07:38;26.52;;;17.23;;
43646;SDS011;56152;49.996;18.980;2023-12-20T08:12:41;27.95;;;17.95;;
43646;SDS011;56152;49.996;18.980;2023-12-20T08:17:44;29.45;;;18.42;;
43646;SDS011;56152;49.996;18.980;2023-12-20T08:22:50;26.90;;;18.05;;
43646;SDS011;56152;49.996;18.980;2023-12-20T08:27:54;25.08;;;16.15;;
43646;SDS011;56152;49.996;18.980;2023-12-20T08:32:58;26.93;;;18.10;;
43646;SDS011;56152;49.996;18.980;2023-12-20T08:38:02;23.00;;;14.17;;
43646;SDS011;56152;49.996;18.980;2023-12-20T08:43:06;21.05;;;13.88;;
43646;SDS011;56152;49.996;18.980;2023-12-20T08:48:08;22.08;;;14.30;;
43646;SDS011;56152;49.996;18.980;2023-12-20T08:53:10;16.67;;;11.57;;
43646;SDS011;56152;49.996;18.980;2023-12-20T08:58:14;16.83;;;10.30;;
43646;SDS011;56152;49.996;18.980;2023-12-20T09:03:17;17.03;;;10.13;;
43646;SDS011;56152;49.996;18.980;2023-12-20T09:08:19;14.63;;;9.45;;
43646;SDS011;56152;49.996;18.980;2023-12-20T09:13:23;17.43;;;11.40;;
43646;SDS011;56152;49.996;18.980;2023-12-20T09:18:28;20.80;;;10.75;;
43646;SDS011;56152;49.996;18.980;2023-12-20T09:23:30;17.73;;;11.23;;
43646;SDS011;56152;49.996;18.980;2023-12-20T09:28:34;18.03;;;11.00;;
43646;SDS011;56152;49.996;18.980;2023-12-20T09:33:37;17.83;;;11.30;;
43646;SDS011;56152;49.996;18.980;2023-12-20T09:38:39;23.08;;;13.50;;
43646;SDS011;56152;49.996;18.980;2023-12-20T09:43:43;23.35;;;13.95;;
43646;SDS011;56152;49.996;18.980;2023-12-20T09:48:45;23.52;;;14.10;;
43646;SDS011;56152;49.996;18.980;2023-12-20T09:53:47;16.05;;;11.65;;
43646;SDS011;56152;49.996;18.980;2023-12-20T09:58:53;14.68;;;10.27;;
43646;SDS011;56152;49.996;18.980;2023-12-20T10:03:55;14.23;;;10.02;;
43646;SDS011;56152;49.996;18.980;2023-12-20T10:09:01;17.52;;;10.82;;
43646;SDS011;56152;49.996;18.980;2023-12-20T10:14:06;27.63;;;13.48;;
43646;SDS011;56152;49.996;18.980;2023-12-20T10:19:08;21.58;;;12.60;;
43646;SDS011;56152;49.996;18.980;2023-12-20T10:24:16;19.40;;;12.00;;
43646;SDS011;56152;49.996;18.980;2023-12-20T10:29:21;20.55;;;11.70;;
43646;SDS011;56152;49.996;18.980;2023-12-20T10:34:25;23.90;;;12.93;;
43646;SDS011;56152;49.996;18.980;2023-12-20T10:39:33;20.37;;;11.17;;
43646;SDS011;56152;49.996;18.980;2023-12-20T10:44:38;18.23;;;11.02;;
43646;SDS011;56152;49.996;18.980;2023-12-20T10:49:40;18.87;;;11.20;;
43646;SDS011;56152;49.996;18.980;2023-12-20T10:54:44;15.30;;;9.38;;
43646;SDS011;56152;49.996;18.980;2023-12-20T10:59:48;17.30;;;9.98;;
43646;SDS011;56152;49.996;18.980;2023-12-20T11:04:55;16.92;;;9.55;;
43646;SDS011;56152;49.996;18.980;2023-12-20T11:10:03;17.40;;;9.10;;
43646;SDS011;56152;49.996;18.980;2023-12-20T11:15:22;15.27;;;9.10;;
43646;SDS011;56152;49.996;18.980;2023-12-20T11:20:34;14.20;;;8.75;;
43646;SDS011;56152;49.996;18.980;2023-12-20T11:25:47;12.10;;;8.60;;
43646;SDS011;56152;49.996;18.980;2023-12-20T11:30:54;16.10;;;10.18;;
43646;SDS011;56152;49.996;18.980;2023-12-20T11:36:00;15.98;;;9.88;;
43646;SDS011;56152;49.996;18.980;2023-12-20T11:41:05;12.82;;;8.77;;
43646;SDS011;56152;49.996;18.980;2023-12-20T11:46:10;11.52;;;8.88;;
43646;SDS011;56152;49.996;18.980;2023-12-20T11:51:12;14.63;;;8.98;;
43646;SDS011;56152;49.996;18.980;2023-12-20T11:56:17;12.95;;;8.65;;
43646;SDS011;56152;49.996;18.980;2023-12-20T12:01:22;13.63;;;9.63;;
43646;SDS011;56152;49.996;18.980;2023-12-20T12:06:24;16.98;;;10.15;;
43646;SDS011;56152;49.996;18.980;2023-12-20T12:11:26;12.27;;;9.73;;
43646;SDS011;56152;49.996;18.980;2023-12-20T12:16:30;14.18;;;10.07;;
43646;SDS011;56152;49.996;18.980;2023-12-20T12:21:32;13.57;;;10.10;;
43646;SDS011;56152;49.996;18.980;2023-12-20T12:26:38;13.80;;;10.38;;
43646;SDS011;56152;49.996;18.980;2023-12-20T12:31:43;16.50;;;11.68;;
43646;SDS011;56152;49.996;18.980;2023-12-20T12:36:45;18.13;;;9.65;;
43646;SDS011;56152;49.996;18.980;2023-12-20T12:41:48;15.90;;;10.88;;
43646;SDS011;56152;49.996;18.980;2023-12-20T12:46:52;15.15;;;9.73;;
43646;SDS011;56152;49.996;18.980;2023-12-20T12:51:54;15.10;;;9.57;;
43646;SDS011;56152;49.996;18.980;2023-12-20T12:56:58;13.63;;;9.73;;
43646;SDS011;56152;49.996;18.980;2023-12-20T13:02:02;14.87;;;9.50;;
43646;SDS011;56152;49.996;18.980;2023-12-20T13:07:04;12.75;;;7.85;;
43646;SDS011;56152;49.996;18.980;2023-12-20T13:12:08;10.85;;;7.95;;
43646;SDS011;56152;49.996;18.980;2023-12-20T13:17:11;11.50;;;8.57;;
43646;SDS011;56152;49.996;18.980;2023-12-20T13:22:20;12.27;;;7.97;;
43646;SDS011;56152;49.996;18.980;2023-12-20T13:27:22;12.05;;;8.30;;
43646;SDS011;56152;49.996;18.980;2023-12-20T13:32:26;13.48;;;9.18;;
43646;SDS011;56152;49.996;18.980;2023-12-20T13:37:29;14.80;;;9.17;;
43646;SDS011;56152;49.996;18.980;2023-12-20T13:42:31;10.30;;;7.68;;
43646;SDS011;56152;49.996;18.980;2023-12-20T13:47:36;9.25;;;6.45;;
43646;SDS011;56152;49.996;18.980;2023-12-20T13:52:40;13.38;;;8.35;;
43646;SDS011;56152;49.996;18.980;2023-12-20T13:57:42;19.35;;;10.52;;
43646;SDS011;56152;49.996;18.980;2023-12-20T14:02:49;25.52;;;12.63;;
43646;SDS011;56152;49.996;18.980;2023-12-20T14:07:52;22.35;;;11.02;;
43646;SDS011;56152;49.996;18.980;2023-12-20T14:12:57;19.83;;;9.27;;
43646;SDS011;56152;49.996;18.980;2023-12-20T14:18:01;17.15;;;8.07;;
43646;SDS011;56152;49.996;18.980;2023-12-20T14:23:04;17.48;;;9.77;;
43646;SDS011;56152;49.996;18.980;2023-12-20T14:28:07;15.55;;;8.15;;
43646;SDS011;56152;49.996;18.980;2023-12-20T14:33:21;12.90;;;8.00;;
43646;SDS011;56152;49.996;18.980;2023-12-20T14:38:24;13.70;;;8.02;;
43646;SDS011;56152;49.996;18.980;2023-12-20T14:43:43;13.85;;;7.72;;
43646;SDS011;56152;49.996;18.980;2023-12-20T14:48:53;14.93;;;8.13;;
43646;SDS011;56152;49.996;18.980;2023-12-20T14:54:01;13.27;;;7.75;;
43646;SDS011;56152;49.996;18.980;2023-12-20T14:59:03;11.93;;;7.30;;
43646;SDS011;56152;49.996;18.980;2023-12-20T15:04:09;12.73;;;8.27;;
43646;SDS011;56152;49.996;18.980;2023-12-20T15:09:12;14.07;;;8.53;;
43646;SDS011;56152;49.996;18.980;2023-12-20T15:14:14;15.53;;;9.57;;
43646;SDS011;56152;49.996;18.980;2023-12-20T15:19:22;18.60;;;10.00;;
43646;SDS011;56152;49.996;18.980;2023-12-20T15:24:24;16.00;;;9.60;;
43646;SDS011;56152;49.996;18.980;2023-12-20T15:29:38;13.83;;;9.37;;
43646;SDS011;56152;49.996;18.980;2023-12-20T15:34:44;18.77;;;10.82;;
43646;SDS011;56152;49.996;18.980;2023-12-20T15:39:51;15.43;;;9.77;;
43646;SDS011;56152;49.996;18.980;2023-12-20T15:44:54;14.87;;;10.47;;
43646;SDS011;56152;49.996;18.980;2023-12-20T15:49:58;14.87;;;10.50;;
43646;SDS011;56152;49.996;18.980;2023-12-20T15:55:00;13.93;;;10.30;;
43646;SDS011;56152;49.996;18.980;2023-12-20T16:00:03;20.50;;;11.02;;
43646;SDS011;56152;49.996;18.980;2023-12-20T16:05:08;16.00;;;10.83;;
43646;SDS011;56152;49.996;18.980;2023-12-20T16:10:10;23.42;;;13.95;;
43646;SDS011;56152;49.996;18.980;2023-12-20T16:15:12;26.08;;;14.30;;
43646;SDS011;56152;49.996;18.980;2023-12-20T16:20:15;25.90;;;15.63;;
43646;SDS011;56152;49.996;18.980;2023-12-20T16:25:17;25.37;;;16.87;;
43646;SDS011;56152;49.996;18.980;2023-12-20T16:30:20;25.00;;;14.57;;
43646;SDS011;56152;49.996;18.980;2023-12-20T16:35:26;23.98;;;13.50;;
43646;SDS011;56152;49.996;18.980;2023-12-20T16:40:28;21.25;;;13.23;;
43646;SDS011;56152;49.996;18.980;2023-12-20T16:45:31;19.13;;;11.27;;
43646;SDS011;56152;49.996;18.980;2023-12-20T16:50:34;19.85;;;9.80;;
43646;SDS011;56152;49.996;18.980;2023-12-20T16:55:36;18.02;;;9.10;;
43646;SDS011;56152;49.996;18.980;2023-12-20T17:00:41;14.63;;;8.83;;
43646;SDS011;56152;49.996;18.980;2023-12-20T17:05:45;12.53;;;7.57;;
43646;SDS011;56152;49.996;18.980;2023-12-20T17:10:47;18.42;;;9.95;;
43646;SDS011;56152;49.996;18.980;2023-12-20T17:15:49;16.13;;;8.83;;
43646;SDS011;56152;49.996;18.980;2023-12-20T17:20:52;14.48;;;8.38;;
43646;SDS011;56152;49.996;18.980;2023-12-20T17:26:02;16.45;;;9.00;;
43646;SDS011;56152;49.996;18.980;2023-12-20T17:31:07;12.10;;;7.20;;
43646;SDS011;56152;49.996;18.980;2023-12-20T17:36:11;19.23;;;9.80;;
43646;SDS011;56152;49.996;18.980;2023-12-20T17:41:15;19.93;;;9.63;;
43646;SDS011;56152;49.996;18.980;2023-12-20T17:46:16;13.63;;;8.55;;
43646;SDS011;56152;49.996;18.980;2023-12-20T17:51:22;15.70;;;8.98;;
43646;SDS011;56152;49.996;18.980;2023-12-20T17:56:24;18.63;;;9.20;;
43646;SDS011;56152;49.996;18.980;2023-12-20T18:01:34;14.73;;;8.77;;
43646;SDS011;56152;49.996;18.980;2023-12-20T18:06:38;18.45;;;7.97;;
43646;SDS011;56152;49.996;18.980;2023-12-20T18:11:43;14.70;;;8.73;;
43646;SDS011;56152;49.996;18.980;2023-12-20T18:16:46;16.03;;;8.00;;
43646;SDS011;56152;49.996;18.980;2023-12-20T18:21:50;15.70;;;8.25;;
43646;SDS011;56152;49.996;18.980;2023-12-20T18:26:52;17.38;;;8.98;;
43646;SDS011;56152;49.996;18.980;2023-12-20T18:31:55;16.52;;;8.35;;
43646;SDS011;56152;49.996;18.980;2023-12-20T18:36:59;13.02;;;7.78;;
43646;SDS011;56152;49.996;18.980;2023-12-20T18:42:01;15.20;;;7.50;;
43646;SDS011;56152;49.996;18.980;2023-12-20T18:47:06;15.90;;;7.47;;
43646;SDS011;56152;49.996;18.980;2023-12-20T18:52:12;15.52;;;7.43;;
43646;SDS011;56152;49.996;18.980;2023-12-20T18:57:14;17.15;;;7.32;;
43646;SDS011;56152;49.996;18.980;2023-12-20T19:02:16;13.30;;;6.75;;
43646;SDS011;56152;49.996;18.980;2023-12-20T19:07:20;17.02;;;7.63;;
43646;SDS011;56152;49.996;18.980;2023-12-20T19:12:22;16.07;;;7.00;;
43646;SDS011;56152;49.996;18.980;2023-12-20T19:17:24;10.90;;;6.05;;
43646;SDS011;56152;49.996;18.980;2023-12-20T19:27:37;15.50;;;7.18;;
43646;SDS011;56152;49.996;18.980;2023-12-20T19:32:38;12.10;;;6.22;;
43646;SDS011;56152;49.996;18.980;2023-12-20T19:37:43;13.68;;;6.13;;
43646;SDS011;56152;49.996;18.980;2023-12-20T19:42:46;12.77;;;6.23;;
43646;SDS011;56152;49.996;18.980;2023-12-20T19:47:48;14.33;;;6.13;;
43646;SDS011;56152;49.996;18.980;2023-12-20T19:52:53;16.20;;;7.63;;
43646;SDS011;56152;49.996;18.980;2023-12-20T19:57:55;12.25;;;6.15;;
43646;SDS011;56152;49.996;18.980;2023-12-20T20:02:58;12.75;;;6.45;;
43646;SDS011;56152;49.996;18.980;2023-12-20T20:08:04;9.68;;;5.47;;
43646;SDS011;56152;49.996;18.980;2023-12-20T20:13:09;14.17;;;6.10;;
43646;SDS011;56152;49.996;18.980;2023-12-20T20:18:12;14.90;;;6.10;;
43646;SDS011;56152;49.996;18.980;2023-12-20T20:28:42;14.03;;;5.97;;
43646;SDS011;56152;49.996;18.980;2023-12-20T20:33:58;16.13;;;5.90;;
43646;SDS011;56152;49.996;18.980;2023-12-20T20:39:04;9.43;;;4.63;;
43646;SDS011;56152;49.996;18.980;2023-12-20T20:44:15;9.43;;;5.03;;
43646;SDS011;56152;49.996;18.980;2023-12-20T20:49:24;11.53;;;4.53;;
43646;SDS011;56152;49.996;18.980;2023-12-20T20:54:40;10.18;;;5.07;;
43646;SDS011;56152;49.996;18.980;2023-12-20T20:59:46;8.93;;;4.97;;
43646;SDS011;56152;49.996;18.980;2023-12-20T21:04:48;11.90;;;7.30;;
43646;SDS011;56152;49.996;18.980;2023-12-20T21:09:59;8.55;;;5.00;;
43646;SDS011;56152;49.996;18.980;2023-12-20T21:15:03;10.77;;;6.03;;
43646;SDS011;56152;49.996;18.980;2023-12-20T21:20:08;10.00;;;5.15;;
43646;SDS011;56152;49.996;18.980;2023-12-20T21:25:13;6.18;;;3.97;;
43646;SDS011;56152;49.996;18.980;2023-12-20T21:30:15;8.77;;;4.63;;
43646;SDS011;56152;49.996;18.980;2023-12-20T21:35:20;7.70;;;4.07;;
43646;SDS011;56152;49.996;18.980;2023-12-20T21:40:24;8.03;;;4.20;;
43646;SDS011;56152;49.996;18.980;2023-12-20T21:45:26;6.30;;;3.77;;
43646;SDS011;56152;49.996;18.980;2023-12-20T21:50:29;6.63;;;3.57;;
43646;SDS011;56152;49.996;18.980;2023-12-20T21:55:33;8.90;;;4.10;;
43646;SDS011;56152;49.996;18.980;2023-12-20T22:00:35;6.80;;;3.70;;
43646;SDS011;56152;49.996;18.980;2023-12-20T22:05:37;8.93;;;3.90;;
43646;SDS011;56152;49.996;18.980;2023-12-20T22:10:41;6.90;;;3.70;;
43646;SDS011;56152;49.996;18.980;2023-12-20T22:15:43;10.50;;;4.53;;
43646;SDS011;56152;49.996;18.980;2023-12-20T22:20:46;12.07;;;5.03;;
43646;SDS011;56152;49.996;18.980;2023-12-20T22:25:49;10.53;;;4.90;;
43646;SDS011;56152;49.996;18.980;2023-12-20T22:30:51;7.78;;;4.28;;
43646;SDS011;56152;49.996;18.980;2023-12-20T22:36:02;8.77;;;4.05;;
43646;SDS011;56152;49.996;18.980;2023-12-20T22:41:08;6.30;;;3.47;;
43646;SDS011;56152;49.996;18.980;2023-12-20T22:46:13;8.52;;;3.95;;
43646;SDS011;56152;49.996;18.980;2023-12-20T22:51:15;5.88;;;2.92;;
43646;SDS011;56152;49.996;18.980;2023-12-20T22:56:22;9.40;;;4.28;;
43646;SDS011;56152;49.996;18.980;2023-12-20T23:01:26;7.53;;;3.80;;
43646;SDS011;56152;49.996;18.980;2023-12-20T23:06:28;7.03;;;3.63;;
43646;SDS011;56152;49.996;18.980;2023-12-20T23:11:32;7.30;;;3.67;;
43646;SDS011;56152;49.996;18.980;2023-12-20T23:16:36;6.53;;;3.65;;
43646;SDS011;56152;49.996;18.980;2023-12-20T23:21:38;8.75;;;3.95;;
43646;SDS011;56152;49.996;18.980;2023-12-20T23:26:42;6.22;;;3.80;;
43646;SDS011;56152;49.996;18.980;2023-12-20T23:31:44;7.73;;;3.80;;
43646;SDS011;56152;49.996;18.980;2023-12-20T23:36:46;5.97;;;2.72;;
43646;SDS011;56152;49.996;18.980;2023-12-20T23:41:50;7.47;;;3.28;;
43646;SDS011;56152;49.996;18.980;2023-12-20T23:46:52;5.73;;;3.13;;
43646;SDS011;56152;49.996;18.980;2023-12-20T23:51:55;8.07;;;3.15;;
43646;SDS011;56152;49.996;18.980;2023-12-20T23:56:59;5.33;;;2.93;;
